Terminal Aerodrome Forecast
Issued by NWS

Home | Current Version | Previous Version | Graphics & Text | Print | Product List | Glossary On
Versions: 1 2 3 4 5 6 7 8 9 10 11 12 13 14 15 16 17 18 19 20 21 22 23 24 25 26 27 28 29 30 31 32 33 34 35 36 37 38
000
FTUS43 KLOT 271900 AAA
TAFDPA
TAF AMD
KDPA 271951Z 2720/2818 10008KT P6SM SCT250
     FM280130 VRB03KT P6SM FEW250
     FM280700 VRB02KT 4SM MIFG FEW250
     FM281300 10004KT P6SM FEW250=

USA.gov is the U.S. government's official web portal to all federal, state and local government web resources and services.